sensor_id;sensor_type;location;lat;lon;timestamp;P1;durP1;ratioP1;P2;durP2;ratioP2
3571;SDS011;7958;53.024;12.970;2022-07-30T00:02:20;5.47;;;2.23;;
3571;SDS011;7958;53.024;12.970;2022-07-30T00:04:47;2.70;;;2.40;;
3571;SDS011;7958;53.024;12.970;2022-07-30T00:07:13;5.67;;;2.77;;
3571;SDS011;7958;53.024;12.970;2022-07-30T00:09:39;2.50;;;2.10;;
3571;SDS011;7958;53.024;12.970;2022-07-30T00:12:07;4.87;;;2.90;;
3571;SDS011;7958;53.024;12.970;2022-07-30T00:14:34;13.93;;;2.60;;
3571;SDS011;7958;53.024;12.970;2022-07-30T00:17:02;4.57;;;2.40;;
3571;SDS011;7958;53.024;12.970;2022-07-30T00:19:29;5.00;;;2.27;;
3571;SDS011;7958;53.024;12.970;2022-07-30T00:21:56;2.20;;;2.00;;
3571;SDS011;7958;53.024;12.970;2022-07-30T00:24:22;3.77;;;2.20;;
3571;SDS011;7958;53.024;12.970;2022-07-30T00:26:49;3.90;;;2.63;;
3571;SDS011;7958;53.024;12.970;2022-07-30T00:29:15;2.60;;;1.83;;
3571;SDS011;7958;53.024;12.970;2022-07-30T00:31:42;4.20;;;2.00;;
3571;SDS011;7958;53.024;12.970;2022-07-30T00:34:09;4.70;;;2.00;;
3571;SDS011;7958;53.024;12.970;2022-07-30T00:36:36;2.50;;;1.97;;
3571;SDS011;7958;53.024;12.970;2022-07-30T00:39:03;6.10;;;2.20;;
3571;SDS011;7958;53.024;12.970;2022-07-30T00:41:29;7.40;;;2.30;;
3571;SDS011;7958;53.024;12.970;2022-07-30T00:43:56;3.80;;;2.50;;
3571;SDS011;7958;53.024;12.970;2022-07-30T00:46:25;3.43;;;2.20;;
3571;SDS011;7958;53.024;12.970;2022-07-30T00:48:52;2.70;;;2.03;;
3571;SDS011;7958;53.024;12.970;2022-07-30T00:51:19;8.97;;;2.60;;
3571;SDS011;7958;53.024;12.970;2022-07-30T00:53:46;6.00;;;2.33;;
3571;SDS011;7958;53.024;12.970;2022-07-30T00:56:12;4.60;;;2.30;;
3571;SDS011;7958;53.024;12.970;2022-07-30T00:58:38;2.70;;;2.20;;
3571;SDS011;7958;53.024;12.970;2022-07-30T01:01:05;4.93;;;2.30;;
3571;SDS011;7958;53.024;12.970;2022-07-30T01:03:32;4.43;;;2.27;;
3571;SDS011;7958;53.024;12.970;2022-07-30T01:06:01;3.47;;;2.27;;
3571;SDS011;7958;53.024;12.970;2022-07-30T01:08:28;3.97;;;2.50;;
3571;SDS011;7958;53.024;12.970;2022-07-30T01:10:55;3.50;;;2.43;;
3571;SDS011;7958;53.024;12.970;2022-07-30T01:13:21;2.80;;;1.90;;
3571;SDS011;7958;53.024;12.970;2022-07-30T01:15:47;2.90;;;2.57;;
3571;SDS011;7958;53.024;12.970;2022-07-30T01:18:14;4.63;;;2.57;;
3571;SDS011;7958;53.024;12.970;2022-07-30T01:20:42;4.10;;;2.20;;
3571;SDS011;7958;53.024;12.970;2022-07-30T01:23:16;2.33;;;2.03;;
3571;SDS011;7958;53.024;12.970;2022-07-30T01:25:49;2.83;;;2.10;;
3571;SDS011;7958;53.024;12.970;2022-07-30T01:28:20;4.23;;;2.43;;
3571;SDS011;7958;53.024;12.970;2022-07-30T01:30:49;4.90;;;2.10;;
3571;SDS011;7958;53.024;12.970;2022-07-30T01:33:16;3.43;;;2.13;;
3571;SDS011;7958;53.024;12.970;2022-07-30T01:35:44;5.73;;;2.60;;
3571;SDS011;7958;53.024;12.970;2022-07-30T01:38:11;3.27;;;1.90;;
3571;SDS011;7958;53.024;12.970;2022-07-30T01:40:42;3.90;;;2.27;;
3571;SDS011;7958;53.024;12.970;2022-07-30T01:43:11;4.83;;;2.23;;
3571;SDS011;7958;53.024;12.970;2022-07-30T01:45:38;2.63;;;2.43;;
3571;SDS011;7958;53.024;12.970;2022-07-30T01:48:06;6.20;;;2.47;;
3571;SDS011;7958;53.024;12.970;2022-07-30T01:50:34;3.00;;;2.37;;
3571;SDS011;7958;53.024;12.970;2022-07-30T01:53:01;11.10;;;2.50;;
3571;SDS011;7958;53.024;12.970;2022-07-30T01:55:29;6.43;;;2.30;;
3571;SDS011;7958;53.024;12.970;2022-07-30T01:57:58;4.97;;;2.40;;
3571;SDS011;7958;53.024;12.970;2022-07-30T02:00:27;4.10;;;2.63;;
3571;SDS011;7958;53.024;12.970;2022-07-30T02:02:55;4.37;;;2.63;;
3571;SDS011;7958;53.024;12.970;2022-07-30T02:05:22;5.80;;;2.40;;
3571;SDS011;7958;53.024;12.970;2022-07-30T02:07:51;6.00;;;2.30;;
3571;SDS011;7958;53.024;12.970;2022-07-30T02:10:23;7.30;;;2.80;;
3571;SDS011;7958;53.024;12.970;2022-07-30T02:12:52;7.47;;;2.30;;
3571;SDS011;7958;53.024;12.970;2022-07-30T02:15:21;3.70;;;1.83;;
3571;SDS011;7958;53.024;12.970;2022-07-30T02:17:53;4.70;;;2.10;;
3571;SDS011;7958;53.024;12.970;2022-07-30T02:20:22;3.80;;;2.20;;
3571;SDS011;7958;53.024;12.970;2022-07-30T02:22:50;5.47;;;2.03;;
3571;SDS011;7958;53.024;12.970;2022-07-30T02:25:19;2.53;;;2.33;;
3571;SDS011;7958;53.024;12.970;2022-07-30T02:27:48;3.87;;;2.00;;
3571;SDS011;7958;53.024;12.970;2022-07-30T02:30:17;5.80;;;2.13;;
3571;SDS011;7958;53.024;12.970;2022-07-30T02:32:44;7.17;;;2.00;;
3571;SDS011;7958;53.024;12.970;2022-07-30T02:35:15;3.93;;;2.30;;
3571;SDS011;7958;53.024;12.970;2022-07-30T02:37:47;2.83;;;2.00;;
3571;SDS011;7958;53.024;12.970;2022-07-30T02:40:17;4.40;;;1.90;;
3571;SDS011;7958;53.024;12.970;2022-07-30T02:42:45;2.30;;;2.10;;
3571;SDS011;7958;53.024;12.970;2022-07-30T02:45:12;2.57;;;2.37;;
3571;SDS011;7958;53.024;12.970;2022-07-30T02:47:41;3.27;;;2.20;;
3571;SDS011;7958;53.024;12.970;2022-07-30T02:50:08;3.67;;;2.27;;
3571;SDS011;7958;53.024;12.970;2022-07-30T02:52:40;2.47;;;2.00;;
3571;SDS011;7958;53.024;12.970;2022-07-30T02:55:08;4.20;;;2.27;;
3571;SDS011;7958;53.024;12.970;2022-07-30T02:57:35;2.70;;;2.30;;
3571;SDS011;7958;53.024;12.970;2022-07-30T03:00:10;3.47;;;2.03;;
3571;SDS011;7958;53.024;12.970;2022-07-30T03:02:37;2.77;;;2.27;;
3571;SDS011;7958;53.024;12.970;2022-07-30T03:05:05;2.77;;;2.17;;
3571;SDS011;7958;53.024;12.970;2022-07-30T03:07:33;5.93;;;2.30;;
3571;SDS011;7958;53.024;12.970;2022-07-30T03:10:03;3.63;;;2.10;;
3571;SDS011;7958;53.024;12.970;2022-07-30T03:12:31;2.50;;;2.30;;
3571;SDS011;7958;53.024;12.970;2022-07-30T03:14:58;5.20;;;2.40;;
3571;SDS011;7958;53.024;12.970;2022-07-30T03:17:25;5.80;;;2.40;;
3571;SDS011;7958;53.024;12.970;2022-07-30T03:19:54;2.90;;;2.60;;
3571;SDS011;7958;53.024;12.970;2022-07-30T03:22:23;13.47;;;2.40;;
3571;SDS011;7958;53.024;12.970;2022-07-30T03:24:50;4.40;;;2.40;;
3571;SDS011;7958;53.024;12.970;2022-07-30T03:27:19;3.43;;;2.43;;
3571;SDS011;7958;53.024;12.970;2022-07-30T03:29:47;2.90;;;2.00;;
3571;SDS011;7958;53.024;12.970;2022-07-30T03:32:14;3.07;;;2.70;;
3571;SDS011;7958;53.024;12.970;2022-07-30T03:34:41;4.13;;;1.90;;
3571;SDS011;7958;53.024;12.970;2022-07-30T03:37:07;4.30;;;2.43;;
3571;SDS011;7958;53.024;12.970;2022-07-30T03:39:34;4.70;;;2.13;;
3571;SDS011;7958;53.024;12.970;2022-07-30T03:42:01;3.13;;;2.57;;
3571;SDS011;7958;53.024;12.970;2022-07-30T03:44:29;5.80;;;2.50;;
3571;SDS011;7958;53.024;12.970;2022-07-30T03:46:56;7.30;;;2.57;;
3571;SDS011;7958;53.024;12.970;2022-07-30T03:49:23;5.77;;;2.10;;
3571;SDS011;7958;53.024;12.970;2022-07-30T03:51:49;2.50;;;1.80;;
3571;SDS011;7958;53.024;12.970;2022-07-30T03:54:16;2.97;;;2.10;;
3571;SDS011;7958;53.024;12.970;2022-07-30T03:56:43;2.33;;;1.80;;
3571;SDS011;7958;53.024;12.970;2022-07-30T03:59:11;6.57;;;2.30;;
3571;SDS011;7958;53.024;12.970;2022-07-30T04:01:40;3.40;;;2.50;;
3571;SDS011;7958;53.024;12.970;2022-07-30T04:04:07;3.50;;;2.07;;
3571;SDS011;7958;53.024;12.970;2022-07-30T04:06:34;5.50;;;2.40;;
3571;SDS011;7958;53.024;12.970;2022-07-30T04:09:03;4.83;;;2.20;;
3571;SDS011;7958;53.024;12.970;2022-07-30T04:11:30;3.07;;;2.23;;
3571;SDS011;7958;53.024;12.970;2022-07-30T04:13:57;4.03;;;1.90;;
3571;SDS011;7958;53.024;12.970;2022-07-30T04:16:24;4.70;;;2.27;;
3571;SDS011;7958;53.024;12.970;2022-07-30T04:18:58;1.87;;;1.77;;
3571;SDS011;7958;53.024;12.970;2022-07-30T04:21:25;3.27;;;2.43;;
3571;SDS011;7958;53.024;12.970;2022-07-30T04:23:52;3.17;;;2.30;;
3571;SDS011;7958;53.024;12.970;2022-07-30T04:26:19;1.90;;;1.80;;
3571;SDS011;7958;53.024;12.970;2022-07-30T04:28:46;3.07;;;2.10;;
3571;SDS011;7958;53.024;12.970;2022-07-30T04:31:13;2.00;;;1.90;;
3571;SDS011;7958;53.024;12.970;2022-07-30T04:33:44;6.60;;;2.23;;
3571;SDS011;7958;53.024;12.970;2022-07-30T04:36:11;3.10;;;2.20;;
3571;SDS011;7958;53.024;12.970;2022-07-30T04:38:39;1.90;;;1.67;;
3571;SDS011;7958;53.024;12.970;2022-07-30T04:41:06;1.90;;;1.73;;
3571;SDS011;7958;53.024;12.970;2022-07-30T04:43:32;4.57;;;2.47;;
3571;SDS011;7958;53.024;12.970;2022-07-30T04:45:59;2.37;;;1.97;;
3571;SDS011;7958;53.024;12.970;2022-07-30T04:48:25;4.57;;;2.30;;
3571;SDS011;7958;53.024;12.970;2022-07-30T04:50:53;2.10;;;1.90;;
3571;SDS011;7958;53.024;12.970;2022-07-30T04:53:24;2.40;;;2.20;;
3571;SDS011;7958;53.024;12.970;2022-07-30T04:55:51;3.77;;;2.07;;
3571;SDS011;7958;53.024;12.970;2022-07-30T04:58:17;1.70;;;1.60;;
3571;SDS011;7958;53.024;12.970;2022-07-30T05:00:45;2.40;;;2.20;;
3571;SDS011;7958;53.024;12.970;2022-07-30T05:03:13;6.90;;;2.03;;
3571;SDS011;7958;53.024;12.970;2022-07-30T05:05:40;5.00;;;3.00;;
3571;SDS011;7958;53.024;12.970;2022-07-30T05:08:07;2.63;;;2.27;;
3571;SDS011;7958;53.024;12.970;2022-07-30T05:10:35;6.60;;;1.80;;
3571;SDS011;7958;53.024;12.970;2022-07-30T05:13:02;2.67;;;2.17;;
3571;SDS011;7958;53.024;12.970;2022-07-30T05:15:29;4.30;;;2.27;;
3571;SDS011;7958;53.024;12.970;2022-07-30T05:17:56;4.57;;;1.80;;
3571;SDS011;7958;53.024;12.970;2022-07-30T05:20:23;2.70;;;1.93;;
3571;SDS011;7958;53.024;12.970;2022-07-30T05:22:50;2.20;;;1.73;;
3571;SDS011;7958;53.024;12.970;2022-07-30T05:25:17;2.60;;;1.70;;
3571;SDS011;7958;53.024;12.970;2022-07-30T05:27:46;3.77;;;1.97;;
3571;SDS011;7958;53.024;12.970;2022-07-30T05:30:12;8.93;;;1.90;;
3571;SDS011;7958;53.024;12.970;2022-07-30T05:32:45;6.90;;;1.83;;
3571;SDS011;7958;53.024;12.970;2022-07-30T05:35:11;2.30;;;1.50;;
3571;SDS011;7958;53.024;12.970;2022-07-30T05:37:38;2.30;;;1.93;;
3571;SDS011;7958;53.024;12.970;2022-07-30T05:40:05;4.20;;;2.30;;
3571;SDS011;7958;53.024;12.970;2022-07-30T05:42:32;2.27;;;1.87;;
3571;SDS011;7958;53.024;12.970;2022-07-30T05:44:59;1.97;;;1.77;;
3571;SDS011;7958;53.024;12.970;2022-07-30T05:47:26;5.40;;;2.00;;
3571;SDS011;7958;53.024;12.970;2022-07-30T05:49:52;2.10;;;1.87;;
3571;SDS011;7958;53.024;12.970;2022-07-30T05:52:19;2.40;;;1.70;;
3571;SDS011;7958;53.024;12.970;2022-07-30T05:54:45;4.60;;;1.53;;
3571;SDS011;7958;53.024;12.970;2022-07-30T05:57:12;1.70;;;1.60;;
3571;SDS011;7958;53.024;12.970;2022-07-30T05:59:38;3.03;;;2.00;;
3571;SDS011;7958;53.024;12.970;2022-07-30T06:02:06;7.63;;;1.97;;
3571;SDS011;7958;53.024;12.970;2022-07-30T06:04:32;2.03;;;1.83;;
3571;SDS011;7958;53.024;12.970;2022-07-30T06:06:59;2.03;;;1.90;;
3571;SDS011;7958;53.024;12.970;2022-07-30T06:09:25;1.67;;;1.57;;
3571;SDS011;7958;53.024;12.970;2022-07-30T06:11:52;2.53;;;1.87;;
3571;SDS011;7958;53.024;12.970;2022-07-30T06:14:18;5.43;;;2.17;;
3571;SDS011;7958;53.024;12.970;2022-07-30T06:16:45;2.50;;;2.10;;
3571;SDS011;7958;53.024;12.970;2022-07-30T06:19:15;3.43;;;1.60;;
3571;SDS011;7958;53.024;12.970;2022-07-30T06:21:41;4.23;;;1.77;;
3571;SDS011;7958;53.024;12.970;2022-07-30T06:24:08;4.13;;;1.77;;
3571;SDS011;7958;53.024;12.970;2022-07-30T06:26:35;2.20;;;1.73;;
3571;SDS011;7958;53.024;12.970;2022-07-30T06:29:01;3.27;;;1.43;;
3571;SDS011;7958;53.024;12.970;2022-07-30T06:31:27;4.07;;;1.70;;
3571;SDS011;7958;53.024;12.970;2022-07-30T06:33:54;3.47;;;1.70;;
3571;SDS011;7958;53.024;12.970;2022-07-30T06:36:22;1.30;;;1.20;;
3571;SDS011;7958;53.024;12.970;2022-07-30T06:38:49;2.60;;;1.70;;
3571;SDS011;7958;53.024;12.970;2022-07-30T06:41:15;4.10;;;2.97;;
3571;SDS011;7958;53.024;12.970;2022-07-30T06:43:43;2.40;;;1.70;;
3571;SDS011;7958;53.024;12.970;2022-07-30T06:46:09;3.53;;;1.67;;
3571;SDS011;7958;53.024;12.970;2022-07-30T06:48:36;2.90;;;1.50;;
3571;SDS011;7958;53.024;12.970;2022-07-30T06:51:02;2.60;;;1.60;;
3571;SDS011;7958;53.024;12.970;2022-07-30T06:53:30;3.23;;;1.80;;
3571;SDS011;7958;53.024;12.970;2022-07-30T06:55:57;2.53;;;1.87;;
3571;SDS011;7958;53.024;12.970;2022-07-30T06:58:23;3.33;;;1.53;;
3571;SDS011;7958;53.024;12.970;2022-07-30T07:00:50;4.70;;;1.80;;
3571;SDS011;7958;53.024;12.970;2022-07-30T07:03:19;3.03;;;1.67;;
3571;SDS011;7958;53.024;12.970;2022-07-30T07:05:46;2.27;;;1.60;;
3571;SDS011;7958;53.024;12.970;2022-07-30T07:08:12;3.13;;;1.70;;
3571;SDS011;7958;53.024;12.970;2022-07-30T07:10:40;1.53;;;1.40;;
3571;SDS011;7958;53.024;12.970;2022-07-30T07:13:06;2.40;;;1.53;;
3571;SDS011;7958;53.024;12.970;2022-07-30T07:15:33;9.13;;;1.70;;
3571;SDS011;7958;53.024;12.970;2022-07-30T07:17:59;1.67;;;1.57;;
3571;SDS011;7958;53.024;12.970;2022-07-30T07:20:25;4.47;;;2.00;;
3571;SDS011;7958;53.024;12.970;2022-07-30T07:22:52;2.20;;;1.30;;
3571;SDS011;7958;53.024;12.970;2022-07-30T07:25:18;5.03;;;1.40;;
3571;SDS011;7958;53.024;12.970;2022-07-30T07:27:46;2.70;;;2.00;;
3571;SDS011;7958;53.024;12.970;2022-07-30T07:30:12;3.53;;;1.50;;
3571;SDS011;7958;53.024;12.970;2022-07-30T07:32:39;3.10;;;1.80;;
3571;SDS011;7958;53.024;12.970;2022-07-30T07:35:06;2.77;;;1.40;;
3571;SDS011;7958;53.024;12.970;2022-07-30T07:37:33;2.67;;;1.40;;
3571;SDS011;7958;53.024;12.970;2022-07-30T07:40:00;2.63;;;1.50;;
3571;SDS011;7958;53.024;12.970;2022-07-30T07:42:26;2.07;;;1.80;;
3571;SDS011;7958;53.024;12.970;2022-07-30T07:44:54;7.13;;;1.60;;
3571;SDS011;7958;53.024;12.970;2022-07-30T07:47:21;1.77;;;1.67;;
3571;SDS011;7958;53.024;12.970;2022-07-30T07:49:47;2.50;;;1.60;;
3571;SDS011;7958;53.024;12.970;2022-07-30T07:52:14;2.50;;;1.73;;
3571;SDS011;7958;53.024;12.970;2022-07-30T07:54:40;2.70;;;1.53;;
3571;SDS011;7958;53.024;12.970;2022-07-30T07:57:06;4.73;;;1.90;;
3571;SDS011;7958;53.024;12.970;2022-07-30T07:59:33;4.13;;;1.90;;
3571;SDS011;7958;53.024;12.970;2022-07-30T08:02:01;4.03;;;1.63;;
3571;SDS011;7958;53.024;12.970;2022-07-30T08:04:27;4.07;;;1.50;;
3571;SDS011;7958;53.024;12.970;2022-07-30T08:06:54;3.10;;;1.43;;
3571;SDS011;7958;53.024;12.970;2022-07-30T08:09:21;1.50;;;1.30;;
3571;SDS011;7958;53.024;12.970;2022-07-30T08:11:47;4.00;;;1.43;;
3571;SDS011;7958;53.024;12.970;2022-07-30T08:14:14;2.23;;;1.60;;
3571;SDS011;7958;53.024;12.970;2022-07-30T08:16:40;1.50;;;1.27;;
3571;SDS011;7958;53.024;12.970;2022-07-30T08:19:08;2.33;;;1.27;;
3571;SDS011;7958;53.024;12.970;2022-07-30T08:21:36;1.47;;;1.40;;
3571;SDS011;7958;53.024;12.970;2022-07-30T08:24:02;1.57;;;1.37;;
3571;SDS011;7958;53.024;12.970;2022-07-30T08:26:29;3.57;;;1.37;;
3571;SDS011;7958;53.024;12.970;2022-07-30T08:28:56;4.20;;;1.20;;
3571;SDS011;7958;53.024;12.970;2022-07-30T08:31:23;3.90;;;1.50;;
3571;SDS011;7958;53.024;12.970;2022-07-30T08:33:49;3.03;;;1.43;;
3571;SDS011;7958;53.024;12.970;2022-07-30T08:36:17;12.03;;;1.40;;
3571;SDS011;7958;53.024;12.970;2022-07-30T08:38:43;1.50;;;1.40;;
3571;SDS011;7958;53.024;12.970;2022-07-30T08:41:09;1.70;;;1.40;;
3571;SDS011;7958;53.024;12.970;2022-07-30T08:43:36;2.70;;;1.60;;
3571;SDS011;7958;53.024;12.970;2022-07-30T08:46:03;1.83;;;1.73;;
3571;SDS011;7958;53.024;12.970;2022-07-30T08:48:31;2.07;;;1.67;;
3571;SDS011;7958;53.024;12.970;2022-07-30T08:50:58;1.10;;;1.10;;
3571;SDS011;7958;53.024;12.970;2022-07-30T08:53:26;2.07;;;1.40;;
3571;SDS011;7958;53.024;12.970;2022-07-30T08:55:53;4.73;;;1.47;;
3571;SDS011;7958;53.024;12.970;2022-07-30T08:58:23;4.03;;;1.30;;
3571;SDS011;7958;53.024;12.970;2022-07-30T09:00:53;2.80;;;1.40;;
3571;SDS011;7958;53.024;12.970;2022-07-30T09:03:19;2.50;;;1.40;;
3571;SDS011;7958;53.024;12.970;2022-07-30T09:05:46;3.30;;;1.37;;
3571;SDS011;7958;53.024;12.970;2022-07-30T09:08:12;3.23;;;1.47;;
3571;SDS011;7958;53.024;12.970;2022-07-30T09:10:40;3.00;;;1.20;;
3571;SDS011;7958;53.024;12.970;2022-07-30T09:13:21;4.67;;;1.43;;
3571;SDS011;7958;53.024;12.970;2022-07-30T09:15:48;1.80;;;1.20;;
3571;SDS011;7958;53.024;12.970;2022-07-30T09:18:16;2.87;;;1.57;;
3571;SDS011;7958;53.024;12.970;2022-07-30T09:20:52;1.47;;;1.33;;
3571;SDS011;7958;53.024;12.970;2022-07-30T09:23:18;3.33;;;1.47;;
3571;SDS011;7958;53.024;12.970;2022-07-30T09:25:46;1.27;;;1.17;;
3571;SDS011;7958;53.024;12.970;2022-07-30T09:28:14;2.20;;;1.33;;
3571;SDS011;7958;53.024;12.970;2022-07-30T09:30:44;4.10;;;1.53;;
3571;SDS011;7958;53.024;12.970;2022-07-30T09:33:12;1.50;;;1.40;;
3571;SDS011;7958;53.024;12.970;2022-07-30T09:35:40;1.50;;;1.20;;
3571;SDS011;7958;53.024;12.970;2022-07-30T09:38:06;4.13;;;1.60;;
3571;SDS011;7958;53.024;12.970;2022-07-30T09:40:33;1.47;;;1.30;;
3571;SDS011;7958;53.024;12.970;2022-07-30T09:43:02;7.87;;;1.80;;
3571;SDS011;7958;53.024;12.970;2022-07-30T09:45:30;1.53;;;1.37;;
3571;SDS011;7958;53.024;12.970;2022-07-30T09:47:57;3.43;;;1.20;;
3571;SDS011;7958;53.024;12.970;2022-07-30T09:50:24;1.50;;;1.10;;
3571;SDS011;7958;53.024;12.970;2022-07-30T09:52:51;1.00;;;1.00;;
3571;SDS011;7958;53.024;12.970;2022-07-30T09:55:27;2.20;;;1.10;;
3571;SDS011;7958;53.024;12.970;2022-07-30T09:57:55;1.60;;;1.10;;
3571;SDS011;7958;53.024;12.970;2022-07-30T10:00:26;1.57;;;1.20;;
3571;SDS011;7958;53.024;12.970;2022-07-30T10:02:54;2.33;;;1.10;;
3571;SDS011;7958;53.024;12.970;2022-07-30T10:05:20;1.50;;;1.20;;
3571;SDS011;7958;53.024;12.970;2022-07-30T10:07:48;3.80;;;1.40;;
3571;SDS011;7958;53.024;12.970;2022-07-30T10:10:16;1.90;;;1.20;;
3571;SDS011;7958;53.024;12.970;2022-07-30T10:12:44;2.40;;;1.40;;
3571;SDS011;7958;53.024;12.970;2022-07-30T10:15:11;1.80;;;1.07;;
3571;SDS011;7958;53.024;12.970;2022-07-30T10:17:40;6.90;;;1.50;;
3571;SDS011;7958;53.024;12.970;2022-07-30T10:20:07;2.83;;;1.37;;
3571;SDS011;7958;53.024;12.970;2022-07-30T10:22:34;1.60;;;1.47;;
3571;SDS011;7958;53.024;12.970;2022-07-30T10:25:00;2.13;;;1.23;;
3571;SDS011;7958;53.024;12.970;2022-07-30T10:27:27;2.90;;;1.20;;
3571;SDS011;7958;53.024;12.970;2022-07-30T10:29:54;4.60;;;1.20;;
3571;SDS011;7958;53.024;12.970;2022-07-30T10:32:20;2.30;;;1.23;;
3571;SDS011;7958;53.024;12.970;2022-07-30T10:34:48;1.93;;;1.50;;
3571;SDS011;7958;53.024;12.970;2022-07-30T10:37:15;1.70;;;1.30;;
3571;SDS011;7958;53.024;12.970;2022-07-30T10:39:42;1.40;;;1.30;;
3571;SDS011;7958;53.024;12.970;2022-07-30T10:42:14;1.47;;;1.00;;
3571;SDS011;7958;53.024;12.970;2022-07-30T10:45:00;2.80;;;1.20;;
3571;SDS011;7958;53.024;12.970;2022-07-30T10:47:33;1.37;;;1.17;;
3571;SDS011;7958;53.024;12.970;2022-07-30T10:50:05;1.13;;;1.03;;
3571;SDS011;7958;53.024;12.970;2022-07-30T10:52:46;1.70;;;1.27;;
3571;SDS011;7958;53.024;12.970;2022-07-30T10:55:18;1.40;;;1.30;;
3571;SDS011;7958;53.024;12.970;2022-07-30T10:57:55;4.70;;;1.20;;
3571;SDS011;7958;53.024;12.970;2022-07-30T11:00:23;3.20;;;1.57;;
3571;SDS011;7958;53.024;12.970;2022-07-30T11:05:44;2.23;;;1.20;;
3571;SDS011;7958;53.024;12.970;2022-07-30T11:08:28;1.87;;;1.37;;
3571;SDS011;7958;53.024;12.970;2022-07-30T11:11:03;3.20;;;1.77;;
3571;SDS011;7958;53.024;12.970;2022-07-30T11:16:22;2.20;;;1.40;;
3571;SDS011;7958;53.024;12.970;2022-07-30T11:19:06;6.10;;;1.40;;
3571;SDS011;7958;53.024;12.970;2022-07-30T11:21:37;2.07;;;1.10;;
3571;SDS011;7958;53.024;12.970;2022-07-30T11:24:11;2.70;;;1.50;;
3571;SDS011;7958;53.024;12.970;2022-07-30T11:27:07;1.60;;;1.50;;
3571;SDS011;7958;53.024;12.970;2022-07-30T11:29:37;2.63;;;1.60;;
3571;SDS011;7958;53.024;12.970;2022-07-30T11:32:23;1.33;;;1.23;;
3571;SDS011;7958;53.024;12.970;2022-07-30T11:35:13;1.50;;;1.40;;
3571;SDS011;7958;53.024;12.970;2022-07-30T11:37:55;2.87;;;1.40;;
3571;SDS011;7958;53.024;12.970;2022-07-30T11:40:26;3.33;;;1.50;;
3571;SDS011;7958;53.024;12.970;2022-07-30T11:45:41;2.60;;;1.33;;
3571;SDS011;7958;53.024;12.970;2022-07-30T11:48:09;1.53;;;1.43;;
3571;SDS011;7958;53.024;12.970;2022-07-30T11:50:36;2.07;;;1.60;;
3571;SDS011;7958;53.024;12.970;2022-07-30T11:53:06;3.47;;;1.43;;
3571;SDS011;7958;53.024;12.970;2022-07-30T11:55:34;5.43;;;1.50;;
3571;SDS011;7958;53.024;12.970;2022-07-30T11:58:03;3.50;;;1.63;;
3571;SDS011;7958;53.024;12.970;2022-07-30T12:00:34;6.20;;;1.90;;
3571;SDS011;7958;53.024;12.970;2022-07-30T12:03:09;1.60;;;1.50;;
3571;SDS011;7958;53.024;12.970;2022-07-30T12:05:36;1.37;;;1.27;;
3571;SDS011;7958;53.024;12.970;2022-07-30T12:08:05;3.00;;;1.50;;
3571;SDS011;7958;53.024;12.970;2022-07-30T12:10:31;1.90;;;1.80;;
3571;SDS011;7958;53.024;12.970;2022-07-30T12:13:06;2.03;;;1.40;;
3571;SDS011;7958;53.024;12.970;2022-07-30T12:15:35;2.53;;;1.60;;
3571;SDS011;7958;53.024;12.970;2022-07-30T12:18:02;3.50;;;1.60;;
3571;SDS011;7958;53.024;12.970;2022-07-30T12:20:28;2.30;;;1.50;;
3571;SDS011;7958;53.024;12.970;2022-07-30T12:22:56;3.20;;;1.70;;
3571;SDS011;7958;53.024;12.970;2022-07-30T12:25:24;1.70;;;1.40;;
3571;SDS011;7958;53.024;12.970;2022-07-30T12:27:50;2.00;;;1.53;;
3571;SDS011;7958;53.024;12.970;2022-07-30T12:30:17;2.10;;;1.50;;
3571;SDS011;7958;53.024;12.970;2022-07-30T12:32:44;6.30;;;1.50;;
3571;SDS011;7958;53.024;12.970;2022-07-30T12:35:11;1.50;;;1.40;;
3571;SDS011;7958;53.024;12.970;2022-07-30T12:37:38;5.77;;;1.83;;
3571;SDS011;7958;53.024;12.970;2022-07-30T12:40:06;2.90;;;1.60;;
3571;SDS011;7958;53.024;12.970;2022-07-30T12:42:35;3.70;;;1.43;;
3571;SDS011;7958;53.024;12.970;2022-07-30T12:45:03;1.53;;;1.37;;
3571;SDS011;7958;53.024;12.970;2022-07-30T12:47:31;3.63;;;1.50;;
3571;SDS011;7958;53.024;12.970;2022-07-30T12:49:59;6.40;;;1.60;;
3571;SDS011;7958;53.024;12.970;2022-07-30T12:52:28;3.97;;;1.30;;
3571;SDS011;7958;53.024;12.970;2022-07-30T12:54:56;13.47;;;1.90;;
3571;SDS011;7958;53.024;12.970;2022-07-30T12:57:26;3.37;;;1.90;;
3571;SDS011;7958;53.024;12.970;2022-07-30T13:00:00;1.97;;;1.60;;
3571;SDS011;7958;53.024;12.970;2022-07-30T13:02:30;2.20;;;1.40;;
3571;SDS011;7958;53.024;12.970;2022-07-30T13:04:57;5.07;;;1.60;;
3571;SDS011;7958;53.024;12.970;2022-07-30T13:07:23;1.43;;;1.30;;
3571;SDS011;7958;53.024;12.970;2022-07-30T13:10:04;9.23;;;1.73;;
3571;SDS011;7958;53.024;12.970;2022-07-30T13:12:32;3.40;;;1.80;;
3571;SDS011;7958;53.024;12.970;2022-07-30T13:14:58;2.97;;;1.70;;
3571;SDS011;7958;53.024;12.970;2022-07-30T13:17:26;4.50;;;1.50;;
3571;SDS011;7958;53.024;12.970;2022-07-30T13:19:53;3.20;;;1.83;;
3571;SDS011;7958;53.024;12.970;2022-07-30T13:22:19;3.80;;;1.87;;
3571;SDS011;7958;53.024;12.970;2022-07-30T13:24:45;1.70;;;1.60;;
3571;SDS011;7958;53.024;12.970;2022-07-30T13:27:12;1.57;;;1.27;;
3571;SDS011;7958;53.024;12.970;2022-07-30T13:29:40;2.60;;;1.47;;
3571;SDS011;7958;53.024;12.970;2022-07-30T13:32:07;1.70;;;1.60;;
3571;SDS011;7958;53.024;12.970;2022-07-30T13:34:35;2.00;;;1.50;;
3571;SDS011;7958;53.024;12.970;2022-07-30T13:37:01;2.60;;;1.47;;
3571;SDS011;7958;53.024;12.970;2022-07-30T13:39:27;2.90;;;1.63;;
3571;SDS011;7958;53.024;12.970;2022-07-30T13:41:54;4.73;;;1.70;;
3571;SDS011;7958;53.024;12.970;2022-07-30T13:44:20;1.70;;;1.60;;
3571;SDS011;7958;53.024;12.970;2022-07-30T13:46:47;1.70;;;1.60;;
3571;SDS011;7958;53.024;12.970;2022-07-30T13:49:13;3.13;;;1.53;;
3571;SDS011;7958;53.024;12.970;2022-07-30T13:51:41;1.70;;;1.60;;
3571;SDS011;7958;53.024;12.970;2022-07-30T13:54:07;1.77;;;1.57;;
3571;SDS011;7958;53.024;12.970;2022-07-30T13:56:33;1.40;;;1.20;;
3571;SDS011;7958;53.024;12.970;2022-07-30T13:59:00;1.70;;;1.60;;
3571;SDS011;7958;53.024;12.970;2022-07-30T14:01:26;2.60;;;1.40;;
3571;SDS011;7958;53.024;12.970;2022-07-30T14:03:53;1.80;;;1.43;;
3571;SDS011;7958;53.024;12.970;2022-07-30T14:06:19;1.93;;;1.33;;
3571;SDS011;7958;53.024;12.970;2022-07-30T14:08:47;2.23;;;1.67;;
3571;SDS011;7958;53.024;12.970;2022-07-30T14:11:14;6.07;;;1.50;;
3571;SDS011;7958;53.024;12.970;2022-07-30T14:13:41;1.53;;;1.40;;
3571;SDS011;7958;53.024;12.970;2022-07-30T14:16:08;1.70;;;1.47;;
3571;SDS011;7958;53.024;12.970;2022-07-30T14:18:34;3.07;;;1.40;;
3571;SDS011;7958;53.024;12.970;2022-07-30T14:21:01;2.57;;;1.43;;
3571;SDS011;7958;53.024;12.970;2022-07-30T14:23:27;1.40;;;1.30;;
3571;SDS011;7958;53.024;12.970;2022-07-30T14:25:56;1.53;;;1.40;;
3571;SDS011;7958;53.024;12.970;2022-07-30T14:28:22;1.30;;;1.20;;
3571;SDS011;7958;53.024;12.970;2022-07-30T14:30:49;1.90;;;1.70;;
3571;SDS011;7958;53.024;12.970;2022-07-30T14:33:15;2.47;;;1.60;;
3571;SDS011;7958;53.024;12.970;2022-07-30T14:35:42;1.40;;;1.30;;
3571;SDS011;7958;53.024;12.970;2022-07-30T14:38:08;1.40;;;1.30;;
3571;SDS011;7958;53.024;12.970;2022-07-30T14:40:35;2.37;;;1.10;;
3571;SDS011;7958;53.024;12.970;2022-07-30T14:43:03;2.33;;;1.40;;
3571;SDS011;7958;53.024;12.970;2022-07-30T14:45:29;1.27;;;1.20;;
3571;SDS011;7958;53.024;12.970;2022-07-30T14:47:57;4.63;;;1.57;;
3571;SDS011;7958;53.024;12.970;2022-07-30T14:50:23;1.87;;;1.40;;
3571;SDS011;7958;53.024;12.970;2022-07-30T14:52:50;2.17;;;1.60;;
3571;SDS011;7958;53.024;12.970;2022-07-30T14:55:16;2.40;;;1.57;;
3571;SDS011;7958;53.024;12.970;2022-07-30T14:57:42;1.60;;;1.50;;
3571;SDS011;7958;53.024;12.970;2022-07-30T15:00:11;2.93;;;1.63;;
3571;SDS011;7958;53.024;12.970;2022-07-30T15:02:38;3.37;;;1.40;;
3571;SDS011;7958;53.024;12.970;2022-07-30T15:05:06;3.03;;;1.50;;
3571;SDS011;7958;53.024;12.970;2022-07-30T15:07:33;1.90;;;1.70;;
3571;SDS011;7958;53.024;12.970;2022-07-30T15:09:59;1.83;;;1.63;;
3571;SDS011;7958;53.024;12.970;2022-07-30T15:12:26;3.87;;;1.43;;
3571;SDS011;7958;53.024;12.970;2022-07-30T15:14:52;3.80;;;1.70;;